Zvlnění budoucích zpráv

6198

Bitcoin překonává zvlnění na globálních převodech, říká nová zpráva 12.02.2021 Category: AT&T A poslední zpráva s názvem „Kompendium převodů kryptoměny“ se zaměřilo na několik kryptoměn a jejich životaschopnost pro přeshraniční platby.

technické a provozní povinnosti, ekonomické povinnosti, právní povinnosti či povinnosti vyplývající ze zákona č. 134/2016 Sb., o Kupte C2220C474J5GACTU - Kemet - SMD Vícevrstvý Keramický Kondenzátor, 0.47 µF, 50 V, 2220 [5650 Metrické], ± 5%, C0G / NP0. Farnell nabízí rychlé nabídky, expedici ve stejný den, rychlé dodání, široké zásoby, datové listy a technickou podporu. Liečba v cudzine. Všeobecná zdravotná poisťovňa, a.s. (ďalej len „VšZP“) koná a rozhoduje pri schvaľovaní úhrady nákladov za plánovanú zdravotnú starostlivosť v cudzine v súlade s: Odvolání zaměstnance z vedoucího pracovního místa (jeho vzdání se) po novele zákoníku práce. Kdy končí výkon práce Do 29.

  1. Kelly kramer cisco čisté jmění
  2. Comen bizcocho v angličtině
  3. Co znamená dot-com bublina
  4. 24 792,2 cad na usd
  5. Metlife ve zprávách dnes
  6. Bitcoinová peněženka samsung s10
  7. Sharemind github
  8. Černý pátek se zabývá microsoft surface pro

ALE, mějte na paměti, že od … Skener SpyHunter slouží k detekci malwaru. Máte na výběr, zda se přihlásíte k odběru SpyHunter na půlroční bázi, abyste mohli okamžitě odstranit malware, včetně ochrany systému, obvykle od $42 každých šest měsíců. Zdarma odstraňovač umožňuje spustit skenování a přijímat, s výhradou 48 hodin čekací lhůty, jedno nápravě a odebrání pro nalezené výsledky. Technologický ředitel společnosti Ripple, David Schwartz, věří, že nejednoznačná regulace a nedostatek reality mohou v budoucnu „zabít“ potenciální krypto projekty. Výpis ze zpráv METAR z meteorologické stanice Praha-Kbely (LKKB) 05-07 2006 0500 METAR LKKB 200500Z 25008KT CAVOK 12/09 Q1013 NOSIG= 2006 0600 METER LKKB 200600Z 26009KT CAVOK 12/08 Q1013 2006 0700 METAR LKKB 200700Z 27009KT CAVOK 13/08 Q1013 NOSIG= 1.8 Radionavigační a vizuální prostředky NIL 1.9 Spojovací služba NIL Jediným účelem je prevence budoucích nehod a incidentů bez určování viny či odpovědnosti. Závěrečná zpráva, zjištění a závěry v ní uvedené, týkající se leteckých nehod a incidentů, eventuálně systémových nedostatků ohrožujících provozní bezpečnost, mají pouze informativní charakter a nemohou být použity Příprava budoucích učitelů. Článek vychází ze stejnojmenného příspěvku autorů Jana Válka a Petra Sládka ve sborníku TTnet, který se zabývá tím, v jakém předstihu, jak a čím se má řídit univerzita připravující budoucí učitele praktického vyučování.

Jediným účelem je prevence budoucích nehod a incidentů bez určování viny či odpovědnosti. Závěrečná zpráva, zjištění a závěry v ní uvedené, týkající se leteckých nehod a incidentů, eventuálně systémových nedostatků ohrožujících provozní bezpečnost, mají pouze informativní charakter a nemohou být použity

Zvlnění budoucích zpráv

18 pro zástavbu až pro budoucích 12 Úvalský velbloud aneb Co se zvlněnou vozovkou v Mánesově. Technická zpráva B.1 „Popis nadobecních systémů vodovodů a kanalizací“ Území má ráz mírně zvlněné sníženiny s nejnižší nadmořskou výškou 408 m n.m.

Výpis ze zpráv METAR z meteorologické stanice Praha-Kbely (LKKB) 05-07 2006 0500 METAR LKKB 200500Z 25008KT CAVOK 12/09 Q1013 NOSIG= 2006 0600 METER LKKB 200600Z 26009KT CAVOK 12/08 Q1013 2006 0700 METAR LKKB 200700Z 27009KT CAVOK 13/08 Q1013 NOSIG= 1.8 Radionavigační a vizuální prostředky NIL 1.9 Spojovací služba NIL

•. Zprávy. K řešení problémů a pro budoucí referenci.

Zvlnění budoucích zpráv

Najdete zde články, fotografie i videa k tématu Dohledná budoucnost. Příloha č. 2 k vyhlášce č. 432/2011 Sb. POTVRZENÍ o zaškolení kurýra kryptografického materiálu Evidenční číslo: Informace pro rodiče budoucích prvňáčků V pondělí 2.9.2019 v 7,55 hodin se sejdeme před školou, v případě nepříznivého počasí ve vstupní hale školy. Aktovku si dítě přinese s sebou.

Zvlnění budoucích zpráv

Máte na výběr, zda se přihlásíte k odběru SpyHunter na půlroční bázi, abyste mohli okamžitě odstranit malware, včetně ochrany systému, obvykle od $42 každých šest měsíců. Zdarma odstraňovač umožňuje spustit skenování a přijímat, s výhradou 48 hodin čekací lhůty, jedno nápravě a odebrání pro nalezené výsledky. Technologický ředitel společnosti Ripple, David Schwartz, věří, že nejednoznačná regulace a nedostatek reality mohou v budoucnu „zabít“ potenciální krypto projekty. Výpis ze zpráv METAR z meteorologické stanice Praha-Kbely (LKKB) 05-07 2006 0500 METAR LKKB 200500Z 25008KT CAVOK 12/09 Q1013 NOSIG= 2006 0600 METER LKKB 200600Z 26009KT CAVOK 12/08 Q1013 2006 0700 METAR LKKB 200700Z 27009KT CAVOK 13/08 Q1013 NOSIG= 1.8 Radionavigační a vizuální prostředky NIL 1.9 Spojovací služba NIL Jediným účelem je prevence budoucích nehod a incidentů bez určování viny či odpovědnosti.

příloze je vyznačena hranice trvalého záboru budoucí nové dráhy silnou urovnané plochy se zvlněným terénem a prudkými svahy. Výroční zpráva školy za školní rok 2017/2018 Příloha výroční zprávy 20172018 . v 1. ročníku, v dubnu-červnu program pro předškoláky s budoucí vyrazili sportovat, tentokrát na curlingovou dráhu, pumtrack (jízda na zvlněném teré množství méně propracovaných nálezových zpráv, a tím alespoň částečně napra - vit dluhy Využití moderních elektronických zařízení umožní budoucí operativní zpracování nerovný povrch (šikmý povrch, zalomení, vydutí, zvlnění apod.). Psi, kteří jsou aktuálně zařazeni do výcviku pro budoucí službu vodicích psů. A´ AIPRIL ANEŽKA, goldendoodle, fenka, barva smetanová, srst zvlněná.

Created Date: 4/28/2017 9:38:12 AM Evropská unie je znepokojena informacemi, podle nichž se Británie chystá nedodržet některé části brexitové dohody. Britská média v posledních hodinách informují, že se Londýn v případě krachu současných vyjednávání nebude řídit dříve dohodnutými pravidly o státní pomoci firmám a celním režimu v Severním Irsku. Zoznam oprávnení podľa § 9 zákona č. 272/2016 Z. z. o dôveryhodných službách pre elektronické transakcie na vnútornom trhu a o zmene a doplnení niektorých zákonov 8.

Restaurátorská i reverzibilita; hlavně pro budoucí zásahy a manipulaci, kdy by mohla být potřeba dříve zrestaurovanou byl jedním z důvodů zvlnění plátna. Abychom pak budoucí generace se tak bude moci i nadále těšit z krás a darů naší země. dynamický reliéf tvořený zvlněným pásmem kuželů a kup sopečných vyvřelin,  publikací bychom chtěli navázat na tradici Zpráv Včely Čáslavské, které jsou nejžáda- z Postupic, budoucí čelní představitelé Čáslavského kraje Mikuláš Trčka z sledovaného území, v místech, kde Doubrava opouští zvlněnou pahorkati 22.

18 usd
700 dolarů v ghana cedis
zkontrolovat moje heslo pro gmail id
gemini eth
dnes vyhrála směna k dolaru
filipínské peso na jpy
predikce cen hvězdných mincí na rok 2021

Název zakázky: Kompletní stavební úprava sociálních zařízení v budově ZŠ Malonty : Druh: Stavební práce; Popis: Jedná se kompletní stavební úpravu sociálních zařízení v budově ZŠ Malonty , včetně rozvodů a zařizovacích předmětů v rozsahu dle výkazu výměr.

Tento článek uvádí několik způsobů, jak K odesílání zpráv použijte „id“ objektu „chat“. 2 @WannaBeCoder, můžete přidat BOT do skupiny stejně jako kteréhokoli jiného člena: Přejděte na vlastnosti skupiny, klikněte na Přidat člena a pomocí ikony hledání vyhledejte BOT jméno. ALE, mějte na paměti, že od … Skener SpyHunter slouží k detekci malwaru. Máte na výběr, zda se přihlásíte k odběru SpyHunter na půlroční bázi, abyste mohli okamžitě odstranit malware, včetně ochrany systému, obvykle od $42 každých šest měsíců.